Kathmandu, Nepal
Current Conditions -  °F | °C
As of 8:50 PM on Monday 24 Nov 2014 (Local Time) from VNKT Reporting Station
Scattered Clouds Scattered Clouds  
Wind Chill: 12°   Ceiling: Unl
Heat Index: 12°   Visibility: 4mi
Dew Point: 10°   Wind: 3mph
Humidity: 88%   Direction: 140°SE
Pressure: 30.15"   Gusts: NA
Location:  27.71°N, 85.31°E
Report Text: VNKT 241550Z 14003KT 6000 FEW020 SCT100 12/10 Q1021 NOSIG
Loading
Personal Weather Stations






























Interactive Weather Map New forecast layout! Learn more

10-Day Weather Forecast

Advertisements
Track Severe Weather on mobile